Time;durP1;ratioP1;P1;durP2;ratioP2;P2;SDS_P1;SDS_P2;PMS_P1;PMS_P2;Temp;Humidity;BMP_temperature;BMP_pressure;BME280_temperature;BME280_humidity;BME280_pressure;Samples;Min_cycle;Max_cycle;Signal;HPM_P1;HPM_P2
2023/02/04 00:00:20;;;;;;;0.50;0.50;;;6.60;99.90;;;;;;5046491;28;20084;-83
2023/02/04 00:02:46;;;;;;;0.60;0.60;;;6.50;99.90;;;;;;5050996;28;20476;-85
2023/02/04 00:05:12;;;;;;;0.50;0.50;;;6.50;99.90;;;;;;5046915;28;20520;-86
2023/02/04 00:07:38;;;;;;;;;;;6.50;99.90;;;;;;5042940;28;20144;-84
2023/02/04 00:10:05;;;;;;;0.40;0.40;;;6.50;99.90;;;;;;5046395;28;20019;-83
2023/02/04 00:12:32;;;;;;;0.50;0.50;;;6.50;99.90;;;;;;5044987;28;20532;-84
2023/02/04 00:14:58;;;;;;;0.60;0.60;;;6.50;99.90;;;;;;5044772;28;20060;-85
2023/02/04 00:17:24;;;;;;;1.63;1.60;;;6.50;99.90;;;;;;5043441;28;20404;-82
2023/02/04 00:19:50;;;;;;;0.80;0.80;;;6.40;99.90;;;;;;5045747;28;20044;-82
2023/02/04 00:22:16;;;;;;;1.33;1.33;;;6.40;99.90;;;;;;5033754;28;20044;-83
2023/02/04 00:24:47;;;;;;;0.63;0.63;;;6.30;99.90;;;;;;5044570;28;20395;-84
2023/02/04 00:27:12;;;;;;;0.60;0.60;;;6.30;99.90;;;;;;5045019;28;20048;-84
2023/02/04 00:29:38;;;;;;;0.40;0.40;;;6.30;99.90;;;;;;5010504;28;20045;-84
2023/02/04 00:32:04;;;;;;;1.58;1.58;;;6.30;99.90;;;;;;5046329;28;20048;-84
2023/02/04 00:34:30;;;;;;;0.50;0.50;;;6.30;99.90;;;;;;5040070;28;20070;-84
2023/02/04 00:36:55;;;;;;;0.50;0.50;;;6.30;99.90;;;;;;5047207;28;20040;-84
2023/02/04 00:39:21;;;;;;;0.57;0.57;;;6.30;99.90;;;;;;5044199;28;20669;-84
2023/02/04 00:41:47;;;;;;;0.50;0.50;;;6.30;99.90;;;;;;5029407;28;20037;-84
2023/02/04 00:44:13;;;;;;;;;;;6.20;99.90;;;;;;5045244;28;20134;-83
2023/02/04 00:46:41;;;;;;;0.60;0.60;;;6.20;99.90;;;;;;5028623;28;19956;-84
2023/02/04 00:49:09;;;;;;;1.05;1.02;;;6.20;99.90;;;;;;5040512;28;20056;-84
2023/02/04 00:51:37;;;;;;;1.70;1.70;;;6.30;99.90;;;;;;5042124;28;20049;-84
2023/02/04 00:54:02;;;;;;;0.52;0.52;;;6.30;99.90;;;;;;5044640;28;20045;-84
2023/02/04 00:56:28;;;;;;;1.27;1.27;;;6.30;99.90;;;;;;5045447;28;20383;-84
2023/02/04 00:58:54;;;;;;;0.60;0.60;;;6.30;99.90;;;;;;5044340;28;20038;-85
2023/02/04 01:01:19;;;;;;;0.90;0.90;;;6.30;99.90;;;;;;5046474;28;20037;-83
2023/02/04 01:03:45;;;;;;;0.60;0.60;;;6.30;99.90;;;;;;5030604;28;20036;-85
2023/02/04 01:06:11;;;;;;;2.97;0.80;;;6.30;99.90;;;;;;5053669;28;20382;-84
2023/02/04 01:08:37;;;;;;;0.60;0.60;;;6.30;99.90;;;;;;5052551;28;20053;-85
2023/02/04 01:11:03;;;;;;;0.90;0.77;;;6.40;99.90;;;;;;5035214;28;20467;-85
2023/02/04 01:13:28;;;;;;;;;;;6.30;99.90;;;;;;5032932;28;20041;-84
2023/02/04 01:15:54;;;;;;;0.50;0.50;;;6.20;99.90;;;;;;5052053;28;19921;-84
2023/02/04 01:18:20;;;;;;;1.55;1.40;;;6.30;99.90;;;;;;5051697;28;20474;-83
2023/02/04 01:20:45;;;;;;;0.40;0.40;;;6.40;99.90;;;;;;5053710;28;20037;-84
2023/02/04 01:23:11;;;;;;;1.95;1.85;;;6.30;99.90;;;;;;5050275;28;20608;-84
2023/02/04 01:25:37;;;;;;;0.85;0.85;;;6.30;99.90;;;;;;5052439;28;20556;-83
2023/02/04 01:28:03;;;;;;;2.58;2.47;;;6.40;99.90;;;;;;5051255;28;20041;-86
2023/02/04 01:30:28;;;;;;;0.40;0.40;;;6.30;99.90;;;;;;5040704;28;20067;-84
2023/02/04 01:32:54;;;;;;;0.95;0.95;;;6.40;99.90;;;;;;5047497;28;20049;-85
2023/02/04 01:35:20;;;;;;;1.08;1.08;;;6.30;99.90;;;;;;5033350;28;20823;-83
2023/02/04 01:37:45;;;;;;;0.70;0.70;;;6.30;99.90;;;;;;5047782;28;20049;-86
2023/02/04 01:40:12;;;;;;;2.30;2.20;;;6.30;99.90;;;;;;5042687;28;20041;-86
2023/02/04 01:42:38;;;;;;;0.50;0.50;;;6.30;99.90;;;;;;5033762;28;20517;-85
2023/02/04 01:45:05;;;;;;;;;;;6.30;99.90;;;;;;5044826;28;20088;-84
2023/02/04 01:47:32;;;;;;;0.57;0.57;;;6.30;99.90;;;;;;5054832;28;19970;-86
2023/02/04 01:49:58;;;;;;;0.60;0.60;;;6.40;99.90;;;;;;5016987;28;20499;-84
2023/02/04 01:52:24;;;;;;;0.90;0.90;;;6.30;99.90;;;;;;5001922;28;20068;-86
2023/02/04 01:54:51;;;;;;;0.70;0.70;;;6.30;99.90;;;;;;5028669;28;20036;-84
2023/02/04 01:57:17;;;;;;;1.30;1.30;;;6.20;99.90;;;;;;5038087;28;20102;-85
2023/02/04 01:59:45;;;;;;;0.70;0.70;;;6.30;99.90;;;;;;5045715;28;20491;-84
2023/02/04 02:02:41;;;;;;;2.05;1.95;;;6.20;99.90;;;;;;5047019;28;20426;-85
2023/02/04 02:05:15;;;;;;;4.13;3.53;;;6.30;99.90;;;;;;5043237;28;20037;-83
2023/02/04 02:07:41;;;;;;;0.60;0.60;;;6.30;99.90;;;;;;5034377;28;20063;-85
2023/02/04 02:10:10;;;;;;;0.60;0.60;;;6.20;99.90;;;;;;5040097;28;20052;-87
2023/02/04 02:12:36;;;;;;;0.90;0.90;;;6.20;99.90;;;;;;5038997;28;20053;-84
2023/02/04 02:15:03;;;;;;;0.50;0.50;;;6.20;99.90;;;;;;5028419;28;20060;-85
2023/02/04 02:17:28;;;;;;;;;;;6.20;99.90;;;;;;5044881;28;20049;-86
2023/02/04 02:19:54;;;;;;;0.50;0.50;;;6.20;99.90;;;;;;5050905;28;19944;-84
2023/02/04 02:22:34;;;;;;;0.65;0.65;;;6.30;99.90;;;;;;5049147;28;20029;-85
2023/02/04 02:24:59;;;;;;;0.60;0.60;;;6.20;99.90;;;;;;5035008;28;20033;-86
2023/02/04 02:27:25;;;;;;;0.95;0.93;;;6.10;99.90;;;;;;5022975;28;20997;-85
2023/02/04 02:29:51;;;;;;;0.70;0.70;;;6.20;99.90;;;;;;5061954;28;20095;-87
2023/02/04 02:32:17;;;;;;;0.55;0.55;;;6.20;99.90;;;;;;5048229;28;20052;-84
2023/02/04 02:34:45;;;;;;;0.57;0.57;;;6.10;99.90;;;;;;5051789;28;20040;-85
2023/02/04 02:37:11;;;;;;;0.55;0.55;;;6.10;99.90;;;;;;5025704;28;20482;-82
2023/02/04 02:39:39;;;;;;;0.60;0.60;;;6.10;99.90;;;;;;5049381;28;20053;-86
2023/02/04 02:42:05;;;;;;;0.50;0.50;;;6.20;99.90;;;;;;5032395;28;20048;-85
2023/02/04 02:44:31;;;;;;;0.65;0.65;;;6.20;99.90;;;;;;5052035;28;20064;-85
2023/02/04 02:46:57;;;;;;;;;;;6.10;99.90;;;;;;5049619;28;20041;-85
2023/02/04 02:49:24;;;;;;;0.50;0.50;;;6.10;99.90;;;;;;5041544;28;19923;-85
2023/02/04 02:51:50;;;;;;;0.40;0.40;;;6.10;99.90;;;;;;5044575;28;20041;-84
2023/02/04 02:54:23;;;;;;;0.50;0.50;;;6.20;99.90;;;;;;5046470;28;20521;-85
2023/02/04 02:56:49;;;;;;;0.43;0.43;;;6.30;99.90;;;;;;5049408;28;20060;-85
2023/02/04 02:59:16;;;;;;;0.60;0.60;;;6.20;99.90;;;;;;5028388;28;20052;-85
2023/02/04 03:01:43;;;;;;;0.52;0.52;;;6.20;99.90;;;;;;5046831;28;20052;-86
2023/02/04 03:04:10;;;;;;;0.50;0.50;;;6.30;99.90;;;;;;5040150;28;20041;-86
2023/02/04 03:06:36;;;;;;;0.50;0.50;;;6.20;99.90;;;;;;5055044;28;20073;-84
2023/02/04 03:09:02;;;;;;;0.60;0.60;;;6.20;99.90;;;;;;5047649;28;20045;-84
2023/02/04 03:11:29;;;;;;;0.60;0.60;;;6.10;99.90;;;;;;5042267;28;20502;-83
2023/02/04 03:13:58;;;;;;;0.60;0.60;;;6.10;99.90;;;;;;5049056;28;20048;-89
2023/02/04 03:16:23;;;;;;;0.50;0.50;;;6.10;99.90;;;;;;5038079;28;20099;-83
2023/02/04 03:18:49;;;;;;;0.60;0.60;;;6.00;99.90;;;;;;5040783;28;20049;-85
2023/02/04 03:21:15;;;;;;;0.50;0.50;;;6.00;99.90;;;;;;5009715;28;20068;-86
2023/02/04 03:23:41;;;;;;;0.60;0.60;;;5.90;99.90;;;;;;5049183;28;20045;-84
2023/02/04 03:26:06;;;;;;;0.60;0.60;;;5.90;99.90;;;;;;5046941;28;20125;-85
2023/02/04 03:28:32;;;;;;;0.50;0.50;;;5.80;99.90;;;;;;5038436;28;20049;-86
2023/02/04 03:30:59;;;;;;;0.40;0.40;;;5.70;99.90;;;;;;5040242;28;20049;-85
2023/02/04 03:33:27;;;;;;;;;;;5.80;99.90;;;;;;5044884;28;20044;-85
2023/02/04 03:35:53;;;;;;;0.52;0.52;;;5.70;99.90;;;;;;5048397;28;19960;-84
2023/02/04 03:38:19;;;;;;;0.77;0.77;;;5.80;99.90;;;;;;5050818;28;20083;-85
2023/02/04 03:40:45;;;;;;;0.50;0.50;;;5.60;99.90;;;;;;5026785;28;20048;-85
2023/02/04 03:43:11;;;;;;;0.60;0.60;;;5.60;99.90;;;;;;5041347;28;20123;-84
2023/02/04 03:45:36;;;;;;;0.55;0.55;;;5.60;99.90;;;;;;5011133;28;20190;-85
2023/02/04 03:48:02;;;;;;;0.45;0.45;;;5.50;99.90;;;;;;5021538;28;20037;-86
2023/02/04 03:50:28;;;;;;;0.60;0.60;;;5.50;99.90;;;;;;5041483;28;20041;-85
2023/02/04 03:52:54;;;;;;;0.60;0.60;;;5.50;99.90;;;;;;5049564;28;20086;-86
2023/02/04 03:55:19;;;;;;;0.38;0.38;;;5.50;99.90;;;;;;5030956;28;20048;-84
2023/02/04 03:57:45;;;;;;;0.52;0.52;;;5.40;99.90;;;;;;5046187;28;20048;-85
2023/02/04 04:00:12;;;;;;;0.40;0.40;;;5.40;99.90;;;;;;5047727;28;20045;-85
2023/02/04 04:02:39;;;;;;;0.50;0.50;;;5.40;99.90;;;;;;5043912;28;20049;-84
2023/02/04 04:05:06;;;;;;;0.50;0.50;;;5.40;99.90;;;;;;5040358;28;20437;-85
2023/02/04 04:07:32;;;;;;;0.60;0.60;;;5.30;99.90;;;;;;5049796;28;20037;-85
2023/02/04 04:09:58;;;;;;;0.60;0.60;;;5.30;99.90;;;;;;5042050;28;20036;-86
2023/02/04 04:12:24;;;;;;;0.60;0.60;;;5.30;99.90;;;;;;5031734;28;20124;-82
2023/02/04 04:14:49;;;;;;;0.60;0.60;;;5.30;99.90;;;;;;5035857;28;20087;-83
2023/02/04 04:17:16;;;;;;;0.60;0.60;;;5.30;99.90;;;;;;5037176;28;20045;-84
2023/02/04 04:19:45;;;;;;;0.50;0.50;;;5.20;99.90;;;;;;5029124;28;20483;-85
2023/02/04 04:22:13;;;;;;;0.50;0.50;;;5.30;99.90;;;;;;5043116;28;20064;-84
2023/02/04 04:24:41;;;;;;;0.50;0.50;;;5.20;99.90;;;;;;5012292;28;20079;-84
2023/02/04 04:27:07;;;;;;;0.52;0.52;;;5.20;99.90;;;;;;5027969;28;20034;-87
2023/02/04 04:29:33;;;;;;;0.50;0.50;;;5.30;99.90;;;;;;5025928;28;20494;-83
2023/02/04 04:31:58;;;;;;;0.60;0.60;;;5.20;99.90;;;;;;5049887;28;20170;-83
2023/02/04 04:34:24;;;;;;;0.60;0.60;;;5.20;99.90;;;;;;5017252;28;20052;-84
2023/02/04 04:36:49;;;;;;;0.60;0.60;;;5.20;99.90;;;;;;5046933;28;20099;-83
2023/02/04 04:39:15;;;;;;;0.60;0.60;;;5.20;99.90;;;;;;5041307;28;20058;-85
2023/02/04 04:41:41;;;;;;;0.52;0.52;;;5.20;99.90;;;;;;5026517;28;20156;-84
2023/02/04 04:44:06;;;;;;;0.63;0.63;;;5.20;99.90;;;;;;5052062;28;20051;-86
2023/02/04 04:46:32;;;;;;;0.50;0.50;;;5.10;99.90;;;;;;5039258;28;20087;-85
2023/02/04 04:48:58;;;;;;;0.52;0.52;;;5.20;99.90;;;;;;5013438;28;20072;-84
2023/02/04 04:51:24;;;;;;;0.60;0.60;;;5.10;99.90;;;;;;5015013;28;20041;-82
2023/02/04 04:53:49;;;;;;;0.60;0.60;;;5.40;99.90;;;;;;5048014;28;20051;-85
2023/02/04 04:56:15;;;;;;;0.65;0.65;;;5.10;99.90;;;;;;5027286;28;20052;-85
2023/02/04 04:58:41;;;;;;;0.40;0.40;;;5.10;99.90;;;;;;5029019;28;20084;-86
2023/02/04 05:01:06;;;;;;;0.50;0.50;;;5.10;99.90;;;;;;5029275;28;20072;-85
2023/02/04 05:03:32;;;;;;;0.50;0.50;;;5.10;99.90;;;;;;5045210;28;20041;-85
2023/02/04 05:05:58;;;;;;;0.60;0.60;;;5.60;99.90;;;;;;5044514;28;20308;-84
2023/02/04 05:08:23;;;;;;;0.50;0.50;;;5.10;99.90;;;;;;5019624;28;20039;-86
2023/02/04 05:10:49;;;;;;;0.57;0.57;;;5.10;99.90;;;;;;5037267;28;20095;-84
2023/02/04 05:13:15;;;;;;;0.60;0.60;;;5.10;99.90;;;;;;5047374;28;20090;-84
2023/02/04 05:15:41;;;;;;;0.52;0.52;;;5.10;99.90;;;;;;5039972;28;20129;-85
2023/02/04 05:18:07;;;;;;;0.60;0.60;;;5.10;99.90;;;;;;5048144;28;20060;-86
2023/02/04 05:20:32;;;;;;;0.60;0.60;;;5.00;99.90;;;;;;5025690;28;20045;-85
2023/02/04 05:23:01;;;;;;;0.43;0.43;;;5.00;99.90;;;;;;5036996;28;20048;-85
2023/02/04 05:25:27;;;;;;;0.50;0.50;;;5.00;99.90;;;;;;5046136;28;20103;-85
2023/02/04 05:27:53;;;;;;;0.40;0.40;;;5.10;99.90;;;;;;5032475;28;20086;-84
2023/02/04 05:30:19;;;;;;;;;;;5.00;99.90;;;;;;5042302;28;20046;-83
2023/02/04 05:32:44;;;;;;;0.50;0.50;;;5.10;99.90;;;;;;5040184;28;19923;-84
2023/02/04 05:35:10;;;;;;;0.57;0.57;;;5.00;99.90;;;;;;5014658;28;20045;-85
2023/02/04 05:37:36;;;;;;;0.60;0.60;;;4.90;99.90;;;;;;5026854;28;20106;-85
2023/02/04 05:40:02;;;;;;;0.60;0.60;;;4.80;99.90;;;;;;5039450;28;20037;-85
2023/02/04 05:42:28;;;;;;;;;;;4.90;99.90;;;;;;5051496;28;20029;-83
2023/02/04 05:44:53;;;;;;;0.50;0.50;;;4.90;99.90;;;;;;5052427;28;19920;-85
2023/02/04 05:47:19;;;;;;;0.60;0.60;;;4.80;99.90;;;;;;5016178;28;20255;-83
2023/02/04 05:49:48;;;;;;;0.60;0.60;;;4.90;99.90;;;;;;5040433;28;20041;-84
2023/02/04 05:52:14;;;;;;;0.40;0.40;;;4.90;99.90;;;;;;5045331;28;20082;-84
2023/02/04 05:54:40;;;;;;;0.52;0.52;;;4.90;99.90;;;;;;5041227;28;20044;-84
2023/02/04 05:57:05;;;;;;;0.60;0.60;;;4.90;99.90;;;;;;5049947;28;20048;-84
2023/02/04 05:59:31;;;;;;;0.50;0.50;;;4.90;99.90;;;;;;5025791;28;20093;-84
2023/02/04 06:01:57;;;;;;;0.60;0.60;;;4.80;99.90;;;;;;5037374;28;20032;-84
2023/02/04 06:04:22;;;;;;;0.50;0.50;;;4.80;99.90;;;;;;5046456;28;20470;-83
2023/02/04 06:06:48;;;;;;;0.60;0.60;;;4.80;99.90;;;;;;5041987;28;20064;-83
2023/02/04 06:09:14;;;;;;;0.50;0.50;;;4.80;99.90;;;;;;5046069;28;20044;-83
2023/02/04 06:11:39;;;;;;;0.50;0.50;;;4.80;99.90;;;;;;5035412;28;20056;-84
2023/02/04 06:14:05;;;;;;;0.60;0.60;;;4.80;99.90;;;;;;5048352;28;20041;-83
2023/02/04 06:16:31;;;;;;;;;;;4.80;99.90;;;;;;5041075;28;20053;-83
2023/02/04 06:18:57;;;;;;;0.50;0.50;;;4.80;99.90;;;;;;5047381;28;20022;-84
2023/02/04 06:21:22;;;;;;;0.55;0.55;;;4.80;99.90;;;;;;5052501;28;20037;-84
2023/02/04 06:23:48;;;;;;;0.50;0.50;;;4.70;99.90;;;;;;5045842;28;20111;-86
2023/02/04 06:26:14;;;;;;;0.50;0.50;;;4.70;99.90;;;;;;5030207;28;20040;-85
2023/02/04 06:28:39;;;;;;;0.55;0.55;;;4.80;99.90;;;;;;5028678;28;20045;-85
2023/02/04 06:31:05;;;;;;;0.47;0.47;;;4.70;99.90;;;;;;5041859;28;20047;-84
2023/02/04 06:33:31;;;;;;;0.50;0.50;;;4.70;99.90;;;;;;5018853;28;20474;-84
2023/02/04 06:35:56;;;;;;;0.52;0.52;;;4.80;99.90;;;;;;5050246;28;20461;-85
2023/02/04 06:38:22;;;;;;;0.60;0.60;;;5.00;99.90;;;;;;5047803;28;20072;-84
2023/02/04 06:40:48;;;;;;;0.68;0.68;;;4.60;99.90;;;;;;5047741;28;20049;-83
2023/02/04 06:43:17;;;;;;;0.65;0.65;;;4.90;99.90;;;;;;5051095;28;20517;-84
2023/02/04 06:45:42;;;;;;;0.60;0.60;;;4.60;99.90;;;;;;5044888;28;20053;-85
2023/02/04 06:48:08;;;;;;;0.60;0.60;;;4.60;99.90;;;;;;5037687;28;20380;-84
2023/02/04 06:50:34;;;;;;;0.47;0.47;;;4.60;99.90;;;;;;5046010;28;20052;-84
2023/02/04 06:52:59;;;;;;;0.57;0.57;;;4.60;99.90;;;;;;5025377;28;20061;-86
2023/02/04 06:55:25;;;;;;;0.50;0.50;;;4.80;99.90;;;;;;5051994;28;20443;-85
2023/02/04 06:57:51;;;;;;;0.57;0.57;;;4.60;99.90;;;;;;5051028;28;20044;-84
2023/02/04 07:00:17;;;;;;;0.60;0.60;;;4.60;99.90;;;;;;5046607;28;20041;-84
2023/02/04 07:02:44;;;;;;;0.50;0.50;;;4.50;99.90;;;;;;5038120;28;20037;-85
2023/02/04 07:05:10;;;;;;;0.50;0.50;;;4.50;99.90;;;;;;5033552;28;20051;-87
2023/02/04 07:07:36;;;;;;;0.60;0.60;;;4.50;99.90;;;;;;5045280;28;20171;-85
2023/02/04 07:10:02;;;;;;;0.60;0.60;;;4.50;99.90;;;;;;5043540;28;20471;-86
2023/02/04 07:12:28;;;;;;;0.50;0.50;;;4.50;99.90;;;;;;5041640;28;20038;-84
2023/02/04 07:14:53;;;;;;;0.60;0.60;;;5.40;99.90;;;;;;5047696;28;20532;-85
2023/02/04 07:17:19;;;;;;;0.45;0.45;;;4.60;99.90;;;;;;5018648;28;20072;-85
2023/02/04 07:19:45;;;;;;;0.50;0.50;;;4.50;99.90;;;;;;5038717;28;20047;-86
2023/02/04 07:22:10;;;;;;;0.68;0.68;;;4.50;99.90;;;;;;5046046;28;20041;-85
2023/02/04 07:24:36;;;;;;;0.50;0.50;;;4.50;99.90;;;;;;5012055;28;20079;-85
2023/02/04 07:27:02;;;;;;;0.60;0.60;;;4.50;99.90;;;;;;5028116;28;20451;-84
2023/02/04 07:29:28;;;;;;;0.60;0.60;;;4.50;99.90;;;;;;5043872;28;20087;-86
2023/02/04 07:31:56;;;;;;;0.55;0.55;;;4.50;99.90;;;;;;5047362;28;20044;-85
2023/02/04 07:34:22;;;;;;;0.50;0.50;;;4.50;99.90;;;;;;5047946;28;20040;-85
2023/02/04 07:36:48;;;;;;;0.50;0.50;;;4.50;99.90;;;;;;5052677;28;20131;-85
2023/02/04 07:39:14;;;;;;;0.50;0.50;;;4.40;99.90;;;;;;5051560;28;20056;-88
2023/02/04 07:41:39;;;;;;;0.50;0.50;;;4.80;99.90;;;;;;5043774;28;20056;-85
2023/02/04 07:44:05;;;;;;;0.50;0.50;;;4.60;99.90;;;;;;5045211;28;20048;-85
2023/02/04 07:46:31;;;;;;;0.60;0.60;;;4.60;99.90;;;;;;5047378;28;20080;-84
2023/02/04 07:48:56;;;;;;;0.60;0.60;;;4.50;99.90;;;;;;5045612;28;20045;-85
2023/02/04 07:51:22;;;;;;;0.60;0.60;;;4.60;99.90;;;;;;5036264;28;20408;-85
2023/02/04 07:53:48;;;;;;;0.60;0.60;;;4.50;99.90;;;;;;5055009;28;20048;-83
2023/02/04 07:56:14;;;;;;;0.60;0.60;;;4.50;99.90;;;;;;5021383;28;20044;-84
2023/02/04 07:58:39;;;;;;;0.50;0.50;;;4.70;99.90;;;;;;5010585;28;20041;-83
2023/02/04 08:01:05;;;;;;;0.50;0.50;;;4.60;99.90;;;;;;5055034;28;20051;-85
2023/02/04 08:03:31;;;;;;;0.52;0.52;;;4.60;99.90;;;;;;5022746;28;20155;-86
2023/02/04 08:05:56;;;;;;;0.60;0.60;;;4.70;99.90;;;;;;5040411;28;20072;-83
2023/02/04 08:08:22;;;;;;;0.50;0.50;;;4.60;99.90;;;;;;5043795;28;20056;-84
2023/02/04 08:10:47;;;;;;;0.50;0.50;;;5.00;99.90;;;;;;5045899;28;20078;-85
2023/02/04 08:13:13;;;;;;;0.60;0.60;;;4.70;99.90;;;;;;5039700;28;20118;-85
2023/02/04 08:15:39;;;;;;;0.38;0.38;;;4.70;99.90;;;;;;5043365;28;20143;-84
2023/02/04 08:18:05;;;;;;;0.50;0.50;;;4.70;99.90;;;;;;5043603;28;20420;-84
2023/02/04 08:20:30;;;;;;;0.55;0.55;;;4.80;99.90;;;;;;5027312;28;20042;-84
2023/02/04 08:22:56;;;;;;;0.60;0.60;;;4.90;99.90;;;;;;5027655;28;20036;-85
2023/02/04 08:25:22;;;;;;;0.50;0.50;;;5.50;99.90;;;;;;5047613;28;20390;-84
2023/02/04 08:27:48;;;;;;;0.60;0.60;;;4.90;99.90;;;;;;5048572;28;20136;-84
2023/02/04 08:30:14;;;;;;;0.60;0.60;;;5.00;99.90;;;;;;5027591;28;20414;-84
2023/02/04 08:32:40;;;;;;;0.60;0.60;;;5.00;99.90;;;;;;5039238;28;20176;-83
2023/02/04 08:35:07;;;;;;;0.60;0.60;;;5.00;99.90;;;;;;5028147;28;20395;-83
2023/02/04 08:37:32;;;;;;;0.50;0.50;;;5.00;99.90;;;;;;5051588;28;20083;-84
2023/02/04 08:39:58;;;;;;;0.60;0.60;;;5.10;99.90;;;;;;5028434;28;20099;-84
2023/02/04 08:42:24;;;;;;;0.50;0.50;;;5.10;99.90;;;;;;5047248;28;20043;-84
2023/02/04 08:44:49;;;;;;;0.57;0.57;;;5.10;99.90;;;;;;5029608;28;20082;-85
2023/02/04 08:47:15;;;;;;;0.60;0.60;;;5.80;99.90;;;;;;5044326;28;20102;-85
2023/02/04 08:49:41;;;;;;;0.75;0.75;;;5.20;99.90;;;;;;5031361;28;20417;-83
2023/02/04 08:52:08;;;;;;;0.50;0.50;;;5.20;99.90;;;;;;5030661;28;20041;-85
2023/02/04 08:54:34;;;;;;;0.50;0.50;;;5.30;99.90;;;;;;5031225;28;20120;-84
2023/02/04 08:57:01;;;;;;;0.57;0.57;;;5.40;99.90;;;;;;5050276;28;20820;-85
2023/02/04 08:59:27;;;;;;;0.60;0.60;;;5.40;99.90;;;;;;5044841;28;20451;-85
2023/02/04 09:01:53;;;;;;;0.50;0.50;;;5.50;99.90;;;;;;5045288;28;20041;-84
2023/02/04 09:04:20;;;;;;;0.60;0.60;;;5.50;99.90;;;;;;5045689;28;20036;-85
2023/02/04 09:06:46;;;;;;;0.47;0.47;;;5.60;99.90;;;;;;5042030;28;20049;-85
2023/02/04 09:09:13;;;;;;;0.50;0.50;;;5.60;99.90;;;;;;5044589;28;20049;-85
2023/02/04 09:11:39;;;;;;;0.50;0.50;;;5.60;99.90;;;;;;5046957;28;20044;-85
2023/02/04 09:14:05;;;;;;;0.40;0.40;;;5.60;99.90;;;;;;5049759;28;20045;-85
2023/02/04 09:16:31;;;;;;;0.50;0.50;;;5.50;99.90;;;;;;5048504;28;20807;-84
2023/02/04 09:19:00;;;;;;;0.40;0.40;;;5.60;99.90;;;;;;5050921;28;20095;-85
2023/02/04 09:21:26;;;;;;;0.50;0.50;;;5.60;99.90;;;;;;5036062;28;20910;-85
2023/02/04 09:23:52;;;;;;;;;;;5.70;99.90;;;;;;5049389;28;20037;-84
2023/02/04 09:26:18;;;;;;;0.50;0.50;;;5.70;99.90;;;;;;5049280;28;19920;-85
2023/02/04 09:28:44;;;;;;;0.50;0.50;;;5.70;99.90;;;;;;5036908;28;20078;-85
2023/02/04 09:31:10;;;;;;;0.60;0.60;;;5.80;99.90;;;;;;5053738;28;20049;-85
2023/02/04 09:33:37;;;;;;;0.52;0.52;;;5.80;99.90;;;;;;5016505;28;20053;-84
2023/02/04 09:36:03;;;;;;;0.50;0.50;;;5.80;99.90;;;;;;5048398;28;20033;-85
2023/02/04 09:38:28;;;;;;;0.50;0.50;;;5.90;99.90;;;;;;5048726;28;20090;-85
2023/02/04 09:40:59;;;;;;;0.50;0.50;;;5.90;99.90;;;;;;5051938;28;20413;-84
2023/02/04 09:43:29;;;;;;;0.50;0.50;;;5.90;99.90;;;;;;5035484;28;20041;-84
2023/02/04 09:45:55;;;;;;;0.60;0.60;;;5.90;99.90;;;;;;5050403;28;20057;-85
2023/02/04 09:48:22;;;;;;;;;;;5.90;99.90;;;;;;5052597;28;20418;-85
2023/02/04 09:50:49;;;;;;;0.43;0.43;;;5.90;99.90;;;;;;5052917;28;19924;-85
2023/02/04 09:53:20;;;;;;;0.52;0.52;;;6.00;99.90;;;;;;5044548;28;20160;-84
2023/02/04 09:55:47;;;;;;;0.45;0.45;;;6.00;99.90;;;;;;5049365;28;20422;-85
2023/02/04 09:58:25;;;;;;;0.50;0.50;;;6.10;99.90;;;;;;5033709;28;20398;-85
2023/02/04 10:01:29;;;;;;;0.50;0.50;;;6.10;99.90;;;;;;5062718;28;20073;-85
2023/02/04 10:03:59;;;;;;;0.50;0.50;;;6.20;99.90;;;;;;4996400;28;20057;-84
2023/02/04 10:06:25;;;;;;;0.60;0.60;;;6.40;99.90;;;;;;5004088;28;20061;-86
2023/02/04 10:08:51;;;;;;;0.57;0.57;;;6.40;99.90;;;;;;5030396;28;20053;-86
2023/02/04 10:11:18;;;;;;;;;;;6.40;99.90;;;;;;5052515;28;20108;-86
2023/02/04 10:13:50;;;;;;;0.50;0.50;;;6.50;99.90;;;;;;5030503;28;19917;-86
2023/02/04 10:16:28;;;;;;;0.50;0.50;;;6.50;99.90;;;;;;5044281;28;20102;-86
2023/02/04 10:18:56;;;;;;;0.60;0.60;;;6.60;99.90;;;;;;5037734;28;20477;-86
2023/02/04 10:21:24;;;;;;;0.50;0.50;;;6.60;99.90;;;;;;5046085;28;20753;-85
2023/02/04 10:23:54;;;;;;;0.60;0.60;;;6.70;99.90;;;;;;5042164;28;20450;-86
2023/02/04 10:26:21;;;;;;;0.40;0.40;;;6.70;99.90;;;;;;5049669;28;20063;-85
2023/02/04 10:28:48;;;;;;;0.50;0.50;;;6.80;99.90;;;;;;5043313;28;20040;-85
2023/02/04 10:31:37;;;;;;;0.38;0.38;;;6.90;99.90;;;;;;5035075;28;20106;-85
2023/02/04 10:34:23;;;;;;;0.60;0.60;;;6.90;99.90;;;;;;5045077;28;20044;-86
2023/02/04 10:36:56;;;;;;;0.43;0.43;;;6.90;99.90;;;;;;5033857;28;20045;-85
2023/02/04 10:39:25;;;;;;;0.45;0.45;;;6.90;99.90;;;;;;5050459;28;20052;-85
2023/02/04 10:41:53;;;;;;;0.40;0.40;;;6.90;99.90;;;;;;5043684;28;20028;-86
2023/02/04 10:44:30;;;;;;;0.40;0.40;;;7.00;99.90;;;;;;5043340;28;20059;-86
2023/02/04 10:47:14;;;;;;;0.50;0.50;;;7.10;99.90;;;;;;5050852;28;20048;-86
2023/02/04 10:49:50;;;;;;;0.40;0.40;;;7.20;99.90;;;;;;5031202;28;20052;-86
2023/02/04 10:52:19;;;;;;;0.50;0.50;;;7.20;99.90;;;;;;5046068;28;20120;-85
2023/02/04 10:54:44;;;;;;;0.43;0.43;;;7.30;99.90;;;;;;5044266;28;20036;-85
2023/02/04 10:57:37;;;;;;;0.40;0.40;;;7.30;99.90;;;;;;5034443;28;20037;-85
2023/02/04 11:00:13;;;;;;;0.57;0.57;;;7.30;99.90;;;;;;5037479;28;20176;-86
2023/02/04 11:03:00;;;;;;;0.50;0.50;;;7.40;99.90;;;;;;5046974;28;20049;-85
2023/02/04 11:05:32;;;;;;;0.40;0.40;;;7.50;99.90;;;;;;5041279;28;20406;-85
2023/02/04 11:07:58;;;;;;;0.35;0.35;;;7.60;99.90;;;;;;5039992;28;20044;-85
2023/02/04 11:10:28;;;;;;;0.50;0.50;;;7.70;99.90;;;;;;5049958;28;20033;-85
2023/02/04 11:12:54;;;;;;;0.47;0.47;;;7.70;99.90;;;;;;5031550;28;20539;-85
2023/02/04 11:15:37;;;;;;;0.43;0.43;;;7.80;99.90;;;;;;5047416;28;20116;-85
2023/02/04 11:18:05;;;;;;;0.60;0.60;;;7.70;99.90;;;;;;5043492;28;20052;-86
2023/02/04 11:20:32;;;;;;;0.40;0.40;;;7.70;99.90;;;;;;5027422;28;20051;-85
2023/02/04 11:23:14;;;;;;;0.50;0.50;;;7.60;99.90;;;;;;5027500;28;20048;-86
2023/02/04 11:25:40;;;;;;;0.50;0.50;;;7.50;99.90;;;;;;5050427;28;20041;-85
2023/02/04 11:28:23;;;;;;;0.40;0.40;;;7.50;99.90;;;;;;5028789;28;20033;-86
2023/02/04 11:30:59;;;;;;;0.43;0.43;;;7.40;99.90;;;;;;5046670;28;20363;-86
2023/02/04 11:33:32;;;;;;;0.40;0.40;;;7.30;99.90;;;;;;5048535;28;20158;-86
2023/02/04 11:36:08;;;;;;;0.30;0.30;;;7.30;99.90;;;;;;5044230;28;20040;-85
2023/02/04 11:38:33;;;;;;;0.55;0.55;;;7.20;99.90;;;;;;5026216;28;20040;-85
2023/02/04 11:41:00;;;;;;;0.40;0.40;;;7.30;99.90;;;;;;5044504;28;20406;-85
2023/02/04 11:43:26;;;;;;;0.50;0.50;;;7.30;99.90;;;;;;5047340;28;20479;-85
2023/02/04 11:46:09;;;;;;;;;;;7.40;99.90;;;;;;5053109;28;20064;-84
2023/02/04 11:48:36;;;;;;;0.50;0.50;;;7.40;99.90;;;;;;5048077;28;20282;-86
2023/02/04 11:51:03;;;;;;;;;;;7.50;99.90;;;;;;5040571;28;20106;-85
2023/02/04 11:53:33;;;;;;;0.40;0.40;;;7.50;99.90;;;;;;5047394;28;20711;-85
2023/02/04 11:55:59;;;;;;;0.40;0.40;;;7.50;99.90;;;;;;5046270;28;20363;-86
2023/02/04 11:58:29;;;;;;;0.43;0.43;;;7.40;99.90;;;;;;5048992;28;20039;-85
2023/02/04 12:00:55;;;;;;;0.50;0.50;;;7.50;99.90;;;;;;5032793;28;20052;-86
2023/02/04 12:03:32;;;;;;;0.50;0.50;;;7.50;99.90;;;;;;5049323;28;20037;-85
2023/02/04 12:05:59;;;;;;;0.40;0.40;;;7.40;99.90;;;;;;5028255;28;20506;-86
2023/02/04 12:08:35;;;;;;;0.40;0.40;;;7.50;99.90;;;;;;5045318;28;20136;-85
2023/02/04 12:11:26;;;;;;;0.50;0.50;;;7.50;99.90;;;;;;5029205;28;20051;-85
2023/02/04 12:13:57;;;;;;;0.60;0.60;;;7.50;99.90;;;;;;5045951;28;20037;-86
2023/02/04 12:16:24;;;;;;;0.55;0.55;;;7.60;99.90;;;;;;5042141;28;20187;-85
2023/02/04 12:18:50;;;;;;;0.70;0.70;;;7.60;99.90;;;;;;5047035;28;20045;-86
2023/02/04 12:21:17;;;;;;;0.50;0.50;;;7.50;99.90;;;;;;5047250;28;20046;-86
2023/02/04 12:23:43;;;;;;;0.30;0.30;;;7.60;99.90;;;;;;5044598;28;20040;-85
2023/02/04 12:26:09;;;;;;;0.50;0.50;;;7.60;99.90;;;;;;5045980;28;20041;-86
2023/02/04 12:28:35;;;;;;;;;;;7.60;99.90;;;;;;5046585;28;20116;-86
2023/02/04 12:31:01;;;;;;;0.45;0.45;;;7.50;99.90;;;;;;5046600;28;20047;-85
2023/02/04 12:33:26;;;;;;;0.50;0.50;;;7.60;99.90;;;;;;5031728;28;20127;-86
2023/02/04 12:35:52;;;;;;;0.30;0.30;;;7.60;99.90;;;;;;5045948;28;20041;-85
2023/02/04 12:38:18;;;;;;;0.52;0.52;;;7.70;99.90;;;;;;5042279;28;20116;-86
2023/02/04 12:40:44;;;;;;;;;;;7.70;99.90;;;;;;5046082;28;20048;-85
2023/02/04 12:43:10;;;;;;;0.52;0.52;;;7.60;99.90;;;;;;5047598;28;19927;-86
2023/02/04 12:45:37;;;;;;;0.40;0.40;;;7.60;99.90;;;;;;5045330;28;20051;-86
2023/02/04 12:48:03;;;;;;;0.50;0.50;;;7.60;99.90;;;;;;5028200;28;20052;-85
2023/02/04 12:50:29;;;;;;;;;;;7.70;99.90;;;;;;5037030;28;20040;-85
2023/02/04 12:52:56;;;;;;;0.50;0.50;;;7.70;99.90;;;;;;5052760;28;19917;-85
2023/02/04 12:55:25;;;;;;;0.50;0.50;;;7.80;99.90;;;;;;5052758;28;20037;-86
2023/02/04 12:57:51;;;;;;;0.70;0.70;;;7.70;99.90;;;;;;5047853;28;20044;-85
2023/02/04 13:00:19;;;;;;;0.55;0.55;;;7.80;99.90;;;;;;5049813;28;20497;-85
2023/02/04 13:02:45;;;;;;;0.50;0.50;;;7.80;99.90;;;;;;5051429;28;20044;-85